createdAt,value
2018-04-07T00:00:24.264Z,100374.83
2018-04-07T00:02:53.259Z,100376.95
2018-04-07T00:05:23.181Z,100378.66
2018-04-07T00:07:53.322Z,100382.47
2018-04-07T00:10:24.107Z,100379.50
2018-04-07T00:12:53.199Z,100369.34
2018-04-07T00:15:22.261Z,100372.69
2018-04-07T00:17:52.035Z,100370.61
2018-04-07T00:20:21.266Z,100366.34
2018-04-07T00:22:51.250Z,100373.54
2018-04-07T00:25:20.186Z,100372.27
2018-04-07T00:27:49.142Z,100374.76
2018-04-07T00:30:18.885Z,100381.48
2018-04-07T00:32:48.934Z,100363.67
2018-04-07T00:35:18.275Z,100370.00
2018-04-07T00:37:47.474Z,100375.87
2018-04-07T00:40:16.667Z,100371.23
2018-04-07T00:42:46.353Z,100370.35
2018-04-07T00:45:15.371Z,100374.16
2018-04-07T00:47:45.958Z,100373.72
2018-04-07T00:50:14.972Z,100378.81
2018-04-07T00:52:56.008Z,100373.70
2018-04-07T00:55:25.075Z,100375.87
2018-04-07T00:57:54.115Z,100388.13
2018-04-07T01:00:25.792Z,100372.02
2018-04-07T01:02:55.460Z,100370.29
2018-04-07T01:05:24.955Z,100370.67
2018-04-07T01:07:55.774Z,100382.89
2018-04-07T01:10:25.927Z,100394.34
2018-04-07T01:12:55.896Z,100384.69
2018-04-07T01:15:25.939Z,100382.16
2018-04-07T01:17:54.926Z,100388.12
2018-04-07T01:20:24.122Z,100382.59
2018-04-07T01:22:55.853Z,100379.66
2018-04-07T01:25:24.876Z,100377.98
2018-04-07T01:27:54.077Z,100390.65
2018-04-07T01:30:23.276Z,100371.12
2018-04-07T01:32:53.194Z,100370.25
2018-04-07T01:35:22.236Z,100375.69
2018-04-07T01:37:53.650Z,100377.78
2018-04-07T01:40:22.935Z,100379.45
2018-04-07T01:42:51.963Z,100375.20
2018-04-07T01:45:22.752Z,100381.50
2018-04-07T01:48:03.713Z,100379.03
2018-04-07T01:50:32.831Z,100383.27
2018-04-07T01:53:02.760Z,100374.75
2018-04-07T01:55:31.804Z,100374.77
2018-04-07T01:58:02.421Z,100387.45
2018-04-07T02:00:31.491Z,100376.00
2018-04-07T02:03:00.675Z,100377.68
2018-04-07T02:05:30.635Z,100373.01
2018-04-07T02:08:01.542Z,100387.44
2018-04-07T02:10:30.629Z,100379.42
2018-04-07T02:13:01.673Z,100387.09
2018-04-07T02:15:30.743Z,100387.59
2018-04-07T02:17:59.969Z,100384.22
2018-04-07T02:20:29.205Z,100400.32
2018-04-07T02:22:58.361Z,100404.14
2018-04-07T02:25:27.545Z,100395.68
2018-04-07T02:27:56.612Z,100400.30
2018-04-07T02:30:26.592Z,100398.97
2018-04-07T02:32:55.558Z,100404.11
2018-04-07T02:35:24.768Z,100404.95
2018-04-07T02:37:54.822Z,100397.27
2018-04-07T02:40:24.328Z,100406.58
2018-04-07T02:42:55.911Z,100409.51
2018-04-07T02:45:25.931Z,100404.91
2018-04-07T02:47:55.099Z,100418.47
2018-04-07T02:50:26.578Z,100393.02
2018-04-07T02:52:55.790Z,100405.67
2018-04-07T02:55:24.886Z,100400.16
2018-04-07T02:57:55.757Z,100404.91
2018-04-07T03:00:24.761Z,100390.54
2018-04-07T03:02:54.760Z,100410.06
2018-04-07T03:05:24.251Z,100401.19
2018-04-07T03:07:54.031Z,100401.23
2018-04-07T03:10:23.106Z,100408.84
2018-04-07T03:12:55.550Z,100394.05
2018-04-07T03:15:26.517Z,100398.69
2018-04-07T03:20:30.701Z,100384.57
2018-04-07T03:23:04.525Z,100385.00
2018-04-07T03:25:34.425Z,100389.18
2018-04-07T03:28:03.471Z,100404.91
2018-04-07T03:33:08.081Z,100403.01
2018-04-07T03:35:37.798Z,100401.99
2018-04-07T03:38:06.830Z,100396.06
2018-04-07T03:40:36.485Z,100421.95
2018-04-07T03:43:05.684Z,100403.54
2018-04-07T03:45:35.434Z,100405.59
2018-04-07T03:48:04.652Z,100401.73
2018-04-07T03:50:33.733Z,100404.28
2018-04-07T03:53:03.801Z,100409.36
2018-04-07T03:55:32.863Z,100414.41
2018-04-07T03:58:02.753Z,100428.80
2018-04-07T04:00:32.543Z,100424.52
2018-04-07T04:03:01.534Z,100421.47
2018-04-07T04:05:30.638Z,100433.28
2018-04-07T04:08:00.648Z,100437.91
2018-04-07T04:10:29.735Z,100452.00
2018-04-07T04:12:58.727Z,100448.73
2018-04-07T04:18:01.639Z,100455.30
2018-04-07T04:20:30.666Z,100457.14
2018-04-07T04:22:59.737Z,100465.97
2018-04-07T04:25:28.660Z,100475.59
2018-04-07T04:27:58.644Z,100469.28
2018-04-07T04:30:27.830Z,100462.84
2018-04-07T04:32:58.066Z,100477.50
2018-04-07T04:35:27.625Z,100474.94
2018-04-07T04:37:57.591Z,100478.05
2018-04-07T04:40:26.594Z,100464.76
2018-04-07T04:42:55.785Z,100474.58
2018-04-07T04:45:24.984Z,100500.72
2018-04-07T04:47:54.015Z,100492.17
2018-04-07T04:50:23.011Z,100496.05
2018-04-07T04:52:53.883Z,100511.34
2018-04-07T04:55:22.849Z,100515.07
2018-04-07T04:57:51.937Z,100518.96
2018-04-07T05:00:21.603Z,100505.86
2018-04-07T05:02:50.738Z,100486.94
2018-04-07T05:05:20.727Z,100504.52
2018-04-07T05:07:49.818Z,100505.59
2018-04-07T05:10:19.635Z,100523.61
2018-04-07T05:12:50.268Z,100508.69
2018-04-07T05:17:53.878Z,100523.98
2018-04-07T05:20:23.806Z,100527.47
2018-04-07T05:22:54.850Z,100507.52
2018-04-07T05:25:23.836Z,100511.84
2018-04-07T05:27:54.502Z,100520.56
2018-04-07T05:30:25.136Z,100507.65
2018-04-07T05:32:54.929Z,100513.84
2018-04-07T05:35:26.512Z,100525.31
2018-04-07T05:37:56.628Z,100512.04
2018-04-07T05:40:25.893Z,100525.83
2018-04-07T05:42:55.840Z,100529.67
2018-04-07T05:45:24.911Z,100512.39
2018-04-07T05:47:54.005Z,100517.34
2018-04-07T05:52:59.833Z,100558.75
2018-04-07T05:55:29.075Z,100524.00
2018-04-07T05:57:59.052Z,100519.58
2018-04-07T06:00:28.190Z,100528.77
2018-04-07T06:02:57.280Z,100528.34
2018-04-07T06:05:27.122Z,100531.75
2018-04-07T06:07:57.576Z,100553.89
2018-04-07T06:10:27.167Z,100572.98
2018-04-07T06:12:56.260Z,100531.05
2018-04-07T06:15:26.078Z,100544.45
2018-04-07T06:17:55.073Z,100549.42
2018-04-07T06:20:24.860Z,100555.70
2018-04-07T06:22:55.214Z,100555.95
2018-04-07T06:25:24.471Z,100548.29
2018-04-07T06:27:56.162Z,100545.44
2018-04-07T06:30:25.279Z,100559.68
2018-04-07T06:32:54.256Z,100561.65
2018-04-07T06:35:24.847Z,100557.78
2018-04-07T06:37:53.711Z,100580.81
2018-04-07T06:40:22.883Z,100566.98
2018-04-07T06:42:52.527Z,100580.86
2018-04-07T06:45:21.548Z,100571.27
2018-04-07T06:47:56.583Z,100569.14
2018-04-07T06:50:29.490Z,100571.95
2018-04-07T06:53:00.275Z,100583.02
2018-04-07T06:55:29.306Z,100579.01
2018-04-07T06:57:58.201Z,100588.48
2018-04-07T07:00:27.316Z,100580.78
2018-04-07T07:02:56.280Z,100594.09
2018-04-07T07:05:25.547Z,100595.66
2018-04-07T07:07:55.201Z,100590.70
2018-04-07T07:10:25.050Z,100596.31
2018-04-07T07:12:54.186Z,100592.12
2018-04-07T07:15:23.601Z,100610.13
2018-04-07T07:17:52.872Z,100591.52
2018-04-07T07:20:21.870Z,100603.65
2018-04-07T07:22:51.076Z,100602.20
2018-04-07T07:25:21.035Z,100599.95
2018-04-07T07:27:51.553Z,100606.28
2018-04-07T07:30:20.452Z,100635.06
2018-04-07T07:32:49.517Z,100615.67
2018-04-07T07:35:19.172Z,100630.77
2018-04-07T07:37:48.210Z,100633.09
2018-04-07T07:40:18.184Z,100633.91
2018-04-07T07:42:48.808Z,100653.34
2018-04-07T07:45:17.992Z,100636.73
2018-04-07T07:47:47.192Z,100638.26
2018-04-07T07:50:16.256Z,100639.53
2018-04-07T07:52:45.176Z,100649.44
2018-04-07T07:55:15.364Z,100645.75
2018-04-07T08:00:19.592Z,100633.91
2018-04-07T08:02:49.568Z,100651.96
2018-04-07T08:05:18.657Z,100646.05
2018-04-07T08:07:48.175Z,100646.80
2018-04-07T08:10:18.135Z,100635.55
2018-04-07T08:12:48.769Z,100638.46
2018-04-07T08:15:17.897Z,100635.50
2018-04-07T08:17:47.669Z,100643.60
2018-04-07T08:22:52.057Z,100663.95
2018-04-07T08:25:21.522Z,100638.84
2018-04-07T08:27:50.727Z,100651.05
2018-04-07T08:30:19.816Z,100632.95
2018-04-07T08:32:48.919Z,100649.55
2018-04-07T08:35:18.727Z,100645.61
2018-04-07T08:37:48.248Z,100635.48
2018-04-07T08:40:17.940Z,100640.46
2018-04-07T08:42:48.119Z,100633.92
2018-04-07T08:45:17.160Z,100642.80
2018-04-07T08:47:46.034Z,100631.11
2018-04-07T08:50:17.761Z,100660.90
2018-04-07T08:52:47.008Z,100639.48
2018-04-07T08:55:16.313Z,100639.60
2018-04-07T09:00:20.955Z,100631.75
2018-04-07T09:02:50.068Z,100620.56
2018-04-07T09:05:19.032Z,100616.37
2018-04-07T09:07:48.328Z,100626.34
2018-04-07T09:10:18.616Z,100610.45
2018-04-07T09:12:48.597Z,100624.45
2018-04-07T09:15:21.688Z,100617.48
2018-04-07T09:17:51.813Z,100622.52
2018-04-07T09:20:21.097Z,100640.91
2018-04-07T09:22:51.628Z,100633.60
2018-04-07T09:25:21.040Z,100626.58
2018-04-07T09:27:52.869Z,100623.25
2018-04-07T09:30:21.761Z,100615.20
2018-04-07T09:32:50.729Z,100623.17
2018-04-07T09:35:20.901Z,100617.69
2018-04-07T09:37:50.508Z,100608.80
2018-04-07T09:40:20.231Z,100610.95
2018-04-07T09:42:49.177Z,100611.38
2018-04-07T09:45:19.376Z,100620.64
2018-04-07T09:47:48.326Z,100612.66
2018-04-07T09:52:55.691Z,100622.72
2018-04-07T09:55:24.876Z,100616.91
2018-04-07T09:57:54.579Z,100619.52
2018-04-07T10:00:25.480Z,100624.35
2018-04-07T10:03:01.545Z,100621.59
2018-04-07T10:05:36.880Z,100630.91
2018-04-07T10:08:06.884Z,100621.29
2018-04-07T10:10:36.103Z,100629.62
2018-04-07T10:13:05.409Z,100626.86
2018-04-07T10:15:34.494Z,100625.67
2018-04-07T10:18:03.493Z,100641.09
2018-04-07T10:20:35.558Z,100617.58
2018-04-07T10:23:04.495Z,100624.53
2018-04-07T10:25:34.225Z,100632.33
2018-04-07T10:28:03.570Z,100656.48
2018-04-07T10:30:32.573Z,100625.95
2018-04-07T10:33:02.282Z,100624.03
2018-04-07T10:35:32.338Z,100634.89
2018-04-07T10:38:03.546Z,100647.61
2018-04-07T10:40:32.642Z,100632.46
2018-04-07T10:43:01.834Z,100626.98
2018-04-07T10:45:30.931Z,100631.47
2018-04-07T10:48:01.663Z,100617.70
2018-04-07T10:50:31.528Z,100628.35
2018-04-07T10:53:00.717Z,100641.97
2018-04-07T10:55:31.310Z,100639.84
2018-04-07T10:58:00.496Z,100637.23
2018-04-07T11:00:30.453Z,100633.69
2018-04-07T11:02:59.552Z,100635.17
2018-04-07T11:05:28.531Z,100630.17
2018-04-07T11:07:58.452Z,100633.77
2018-04-07T11:10:27.499Z,100645.74
2018-04-07T11:12:57.231Z,100638.36
2018-04-07T11:15:26.277Z,100627.11
2018-04-07T11:17:57.166Z,100635.19
2018-04-07T11:20:26.265Z,100642.27
2018-04-07T11:22:55.364Z,100629.77
2018-04-07T11:25:24.370Z,100638.34
2018-04-07T11:27:54.711Z,100634.53
2018-04-07T11:30:24.283Z,100621.03
2018-04-07T11:32:54.239Z,100628.23
2018-04-07T11:35:23.399Z,100621.27
2018-04-07T11:37:53.217Z,100631.77
2018-04-07T11:40:24.084Z,100620.36
2018-04-07T11:42:53.141Z,100617.58
2018-04-07T11:45:22.245Z,100615.23
2018-04-07T11:47:51.482Z,100613.61
2018-04-07T11:50:21.451Z,100620.33
2018-04-07T11:52:50.650Z,100631.04
2018-04-07T11:55:19.939Z,100637.08
2018-04-07T11:57:49.368Z,100642.36
2018-04-07T12:00:18.338Z,100634.56
2018-04-07T12:02:47.253Z,100612.39
2018-04-07T12:05:17.275Z,100610.30
2018-04-07T12:07:47.408Z,100631.88
2018-04-07T12:10:16.665Z,100610.22
2018-04-07T12:12:49.718Z,100607.66
2018-04-07T12:15:18.898Z,100614.89
2018-04-07T12:17:48.968Z,100619.41
2018-04-07T12:20:18.913Z,100621.77
2018-04-07T12:22:48.108Z,100621.09
2018-04-07T12:25:17.214Z,100616.40
2018-04-07T12:27:47.163Z,100621.98
2018-04-07T12:30:16.317Z,100623.13
2018-04-07T12:32:45.625Z,100620.81
2018-04-07T12:35:14.826Z,100610.73
2018-04-07T12:37:43.754Z,100625.92
2018-04-07T12:40:12.811Z,100641.58
2018-04-07T12:42:43.060Z,100620.23
2018-04-07T12:45:12.375Z,100607.39
2018-04-07T12:47:41.474Z,100611.34
2018-04-07T12:50:11.350Z,100618.34
2018-04-07T12:52:41.987Z,100631.63
2018-04-07T12:55:11.074Z,100632.70
2018-04-07T12:57:41.010Z,100631.20
2018-04-07T13:00:10.240Z,100627.43
2018-04-07T13:02:43.132Z,100638.56
2018-04-07T13:05:12.991Z,100647.00
2018-04-07T13:07:42.928Z,100658.81
2018-04-07T13:10:13.942Z,100640.39
2018-04-07T13:12:44.068Z,100647.05
2018-04-07T13:15:13.203Z,100652.34
2018-04-07T13:17:43.035Z,100632.26
2018-04-07T13:20:17.853Z,100644.66
2018-04-07T13:22:47.259Z,100630.17
2018-04-07T13:25:16.454Z,100640.31
2018-04-07T13:27:45.763Z,100644.09
2018-04-07T13:30:16.354Z,100637.98
2018-04-07T13:32:46.384Z,100636.00
2018-04-07T13:35:15.474Z,100641.98
2018-04-07T13:37:44.522Z,100646.30
2018-04-07T13:40:13.454Z,100651.57
2018-04-07T13:42:42.386Z,100648.81
2018-04-07T13:45:11.607Z,100658.95
2018-04-07T13:47:40.584Z,100652.97
2018-04-07T13:50:09.986Z,100647.97
2018-04-07T13:52:41.770Z,100658.45
2018-04-07T13:55:18.051Z,100651.30
2018-04-07T13:57:50.261Z,100650.41
2018-04-07T14:00:19.264Z,100649.52
2018-04-07T14:02:48.277Z,100655.93
2018-04-07T14:05:19.959Z,100664.41
2018-04-07T14:07:49.097Z,100656.91
2018-04-07T14:10:18.894Z,100655.34
2018-04-07T14:12:48.750Z,100668.45
2018-04-07T14:15:17.736Z,100659.76
2018-04-07T14:17:46.828Z,100673.73
2018-04-07T14:20:17.790Z,100676.81
2018-04-07T14:22:46.861Z,100683.59
2018-04-07T14:25:16.178Z,100670.09
2018-04-07T14:27:45.326Z,100687.19
2018-04-07T14:30:16.478Z,100672.20
2018-04-07T14:32:45.465Z,100689.45
2018-04-07T14:35:16.183Z,100682.38
2018-04-07T14:37:47.277Z,100700.39
2018-04-07T14:40:17.242Z,100682.48
2018-04-07T14:42:46.475Z,100694.89
2018-04-07T14:45:15.488Z,100676.94
2018-04-07T14:47:44.585Z,100680.27
2018-04-07T14:50:14.513Z,100695.56
2018-04-07T14:52:45.642Z,100696.58
2018-04-07T14:55:14.850Z,100695.72
2018-04-07T14:57:44.251Z,100700.86
2018-04-07T15:00:14.097Z,100706.72
2018-04-07T15:02:44.044Z,100696.37
2018-04-07T15:05:13.384Z,100715.83
2018-04-07T15:07:42.809Z,100722.43
2018-04-07T15:10:12.805Z,100702.16
2018-04-07T15:12:42.580Z,100711.13
2018-04-07T15:15:13.470Z,100698.39
2018-04-07T15:17:42.412Z,100689.91
2018-04-07T15:20:11.498Z,100702.79
2018-04-07T15:22:40.556Z,100710.87
2018-04-07T15:25:10.356Z,100700.38
2018-04-07T15:27:40.960Z,100707.55
2018-04-07T15:30:11.686Z,100705.55
2018-04-07T15:32:40.688Z,100704.16
2018-04-07T15:35:09.826Z,100704.67
2018-04-07T15:37:38.872Z,100708.11
2018-04-07T15:40:08.974Z,100702.70
2018-04-07T15:42:39.047Z,100699.17
2018-04-07T15:45:08.366Z,100700.05
2018-04-07T15:47:38.334Z,100699.59
2018-04-07T15:50:07.626Z,100715.58
2018-04-07T15:52:36.880Z,100709.17
2018-04-07T15:55:05.928Z,100713.91
2018-04-07T15:57:35.840Z,100703.17
2018-04-07T16:00:05.757Z,100711.28
2018-04-07T16:02:36.457Z,100715.19
2018-04-07T16:05:05.588Z,100716.84
2018-04-07T16:07:35.907Z,100715.23
2018-04-07T16:10:05.324Z,100709.95
2018-04-07T16:12:35.452Z,100724.93
2018-04-07T16:15:04.842Z,100721.91
2018-04-07T16:17:33.945Z,100712.45
2018-04-07T16:20:03.330Z,100705.09
2018-04-07T16:22:34.199Z,100701.78
2018-04-07T16:25:03.928Z,100704.80
2018-04-07T16:27:33.815Z,100706.08
2018-04-07T16:30:05.733Z,100704.80
2018-04-07T16:32:35.515Z,100709.00
2018-04-07T16:35:05.427Z,100710.73
2018-04-07T16:37:34.796Z,100711.58
2018-04-07T16:40:09.658Z,100715.02
2018-04-07T16:42:39.932Z,100709.42
2018-04-07T16:45:08.995Z,100733.80
2018-04-07T16:47:38.071Z,100720.12
2018-04-07T16:50:08.441Z,100735.92
2018-04-07T16:52:39.520Z,100749.23
2018-04-07T16:55:11.431Z,100719.67
2018-04-07T16:57:41.607Z,100723.52
2018-04-07T17:00:11.745Z,100726.21
2018-04-07T17:02:41.882Z,100722.91
2018-04-07T17:05:11.097Z,100747.06
2018-04-07T17:07:40.280Z,100744.25
2018-04-07T17:10:10.161Z,100730.70
2018-04-07T17:12:39.393Z,100741.87
2018-04-07T17:15:08.351Z,100745.44
2018-04-07T17:17:38.141Z,100742.05
2018-04-07T17:20:07.154Z,100737.81
2018-04-07T17:22:36.325Z,100758.36
2018-04-07T17:25:06.242Z,100749.45
2018-04-07T17:27:35.299Z,100763.17
2018-04-07T17:30:04.462Z,100750.51
2018-04-07T17:32:33.627Z,100763.45
2018-04-07T17:35:02.569Z,100778.58
2018-04-07T17:37:31.481Z,100768.84
2018-04-07T17:40:00.872Z,100781.73
2018-04-07T17:42:29.886Z,100772.06
2018-04-07T17:44:58.834Z,100776.71
2018-04-07T17:47:27.881Z,100815.97
2018-04-07T17:49:56.934Z,100808.75
2018-04-07T17:52:26.925Z,100804.55
2018-04-07T17:54:56.797Z,100823.00
2018-04-07T17:57:31.695Z,100792.31
2018-04-07T18:00:05.185Z,100799.58
2018-04-07T18:02:34.316Z,100812.34
2018-04-07T18:05:04.309Z,100801.70
2018-04-07T18:07:33.507Z,100822.09
2018-04-07T18:10:02.483Z,100803.33
2018-04-07T18:12:31.826Z,100807.09
2018-04-07T18:15:01.661Z,100818.14
2018-04-07T18:17:30.946Z,100820.27
2018-04-07T18:20:00.116Z,100813.95
2018-04-07T18:22:29.444Z,100814.34
2018-04-07T18:24:58.665Z,100809.30
2018-04-07T18:27:28.666Z,100811.00
2018-04-07T18:29:59.599Z,100814.76
2018-04-07T18:32:28.634Z,100812.25
2018-04-07T18:34:57.899Z,100820.34
2018-04-07T18:37:28.945Z,100817.71
2018-04-07T18:39:59.199Z,100824.86
2018-04-07T18:42:28.224Z,100814.67
2018-04-07T18:44:59.600Z,100816.77
2018-04-07T18:47:29.328Z,100813.35
2018-04-07T18:52:34.275Z,100798.88
2018-04-07T18:55:03.275Z,100813.78
2018-04-07T18:57:34.519Z,100814.19
2018-04-07T19:00:04.389Z,100817.09
2018-04-07T19:02:33.483Z,100819.62
2018-04-07T19:05:03.609Z,100828.11
2018-04-07T19:07:33.186Z,100835.74
2018-04-07T19:10:02.358Z,100820.77
2018-04-07T19:12:32.381Z,100822.48
2018-04-07T19:15:01.369Z,100821.60
2018-04-07T19:17:31.220Z,100810.53
2018-04-07T19:20:00.443Z,100815.20
2018-04-07T19:22:30.049Z,100823.26
2018-04-07T19:24:59.339Z,100812.16
2018-04-07T19:27:28.418Z,100820.23
2018-04-07T19:29:57.702Z,100814.61
2018-04-07T19:32:26.898Z,100826.98
2018-04-07T19:34:55.989Z,100814.11
2018-04-07T19:37:24.985Z,100814.48
2018-04-07T19:39:54.127Z,100816.20
2018-04-07T19:42:24.922Z,100819.55
2018-04-07T19:44:54.424Z,100817.45
2018-04-07T19:47:24.780Z,100820.33
2018-04-07T19:49:57.933Z,100822.48
2018-04-07T19:52:26.952Z,100814.39
2018-04-07T19:54:56.796Z,100809.67
2018-04-07T19:57:25.803Z,100819.05
2018-04-07T19:59:54.946Z,100823.27
2018-04-07T20:02:25.005Z,100810.41
2018-04-07T20:04:55.775Z,100822.27
2018-04-07T20:07:32.881Z,100822.23
2018-04-07T20:10:02.224Z,100808.55
2018-04-07T20:12:31.126Z,100807.28
2018-04-07T20:15:00.161Z,100823.55
2018-04-07T20:17:29.289Z,100814.98
2018-04-07T20:19:58.251Z,100824.78
2018-04-07T20:22:27.378Z,100819.64
2018-04-07T20:24:57.456Z,100831.61
2018-04-07T20:27:27.299Z,100824.40
2018-04-07T20:29:57.116Z,100821.42
2018-04-07T20:32:26.398Z,100841.81
2018-04-07T20:34:55.453Z,100816.90
2018-04-07T20:37:24.586Z,100824.16
2018-04-07T20:39:54.514Z,100824.09
2018-04-07T20:42:28.715Z,100826.67
2018-04-07T20:44:57.914Z,100826.16
2018-04-07T20:47:26.914Z,100825.64
2018-04-07T20:49:56.066Z,100830.03
2018-04-07T20:52:25.202Z,100812.99
2018-04-07T20:54:55.062Z,100824.90
2018-04-07T20:57:24.215Z,100820.60
2018-04-07T20:59:54.171Z,100816.03
2018-04-07T21:02:23.230Z,100815.19
2018-04-07T21:04:55.850Z,100807.91
2018-04-07T21:07:24.975Z,100817.36
2018-04-07T21:09:54.064Z,100811.04
2018-04-07T21:12:23.207Z,100811.99
2018-04-07T21:14:52.293Z,100806.45
2018-04-07T21:17:22.863Z,100812.13
2018-04-07T21:19:53.879Z,100799.86
2018-04-07T21:22:22.864Z,100803.02
2018-04-07T21:24:51.801Z,100794.50
2018-04-07T21:27:24.002Z,100801.29
2018-04-07T21:29:53.174Z,100809.83
2018-04-07T21:32:22.472Z,100794.94
2018-04-07T21:34:51.751Z,100812.48
2018-04-07T21:37:21.743Z,100799.78
2018-04-07T21:39:50.735Z,100802.84
2018-04-07T21:42:19.794Z,100795.97
2018-04-07T21:44:48.866Z,100796.06
2018-04-07T21:47:17.822Z,100802.41
2018-04-07T21:49:48.145Z,100798.19
2018-04-07T21:52:17.160Z,100787.69
2018-04-07T21:54:46.310Z,100808.59
2018-04-07T21:59:53.054Z,100792.95
2018-04-07T22:02:22.434Z,100788.02
2018-04-07T22:04:51.559Z,100774.42
2018-04-07T22:07:21.481Z,100783.38
2018-04-07T22:09:51.029Z,100777.85
2018-04-07T22:12:20.989Z,100779.02
2018-04-07T22:14:50.070Z,100785.66
2018-04-07T22:17:19.995Z,100794.97
2018-04-07T22:19:52.122Z,100787.17
2018-04-07T22:22:21.097Z,100781.17
2018-04-07T22:24:50.373Z,100792.70
2018-04-07T22:27:20.354Z,100785.39
2018-04-07T22:29:51.093Z,100783.30
2018-04-07T22:32:21.017Z,100786.34
2018-04-07T22:34:50.923Z,100770.98
2018-04-07T22:37:22.479Z,100778.22
2018-04-07T22:39:51.783Z,100773.97
2018-04-07T22:42:20.913Z,100773.03
2018-04-07T22:44:50.171Z,100766.66
2018-04-07T22:47:19.928Z,100776.41
2018-04-07T22:49:49.136Z,100769.86
2018-04-07T22:52:18.156Z,100763.48
2018-04-07T22:54:47.326Z,100757.48
2018-04-07T22:57:18.118Z,100754.93
2018-04-07T22:59:47.373Z,100762.16
2018-04-07T23:02:18.129Z,100759.11
2018-04-07T23:04:47.196Z,100757.33
2018-04-07T23:07:17.072Z,100753.11
2018-04-07T23:09:47.800Z,100738.15
2018-04-07T23:12:16.935Z,100746.28
2018-04-07T23:14:46.226Z,100733.39
2018-04-07T23:17:17.453Z,100742.38
2018-04-07T23:19:46.616Z,100744.63
2018-04-07T23:22:17.519Z,100735.20
2018-04-07T23:24:49.285Z,100736.48
2018-04-07T23:27:19.513Z,100736.91
2018-04-07T23:29:48.535Z,100729.17
2018-04-07T23:32:23.732Z,100732.05
2018-04-07T23:34:52.779Z,100729.91
2018-04-07T23:37:22.681Z,100702.58
2018-04-07T23:39:52.234Z,100718.73
2018-04-07T23:42:21.339Z,100712.78
2018-04-07T23:44:50.393Z,100719.09
2018-04-07T23:47:20.408Z,100697.64
2018-04-07T23:49:49.442Z,100697.15
2018-04-07T23:52:18.490Z,100697.22
2018-04-07T23:54:47.724Z,100710.05
2018-04-07T23:57:17.821Z,100699.84
2018-04-07T23:59:47.207Z,100681.95
